createdAt,value
2022-08-04T00:02:08.474Z,100976.16
2022-08-04T00:04:45.409Z,100974.84
2022-08-04T00:07:20.038Z,100979.44
2022-08-04T00:10:09.896Z,100979.97
2022-08-04T00:12:41.898Z,100986.59
2022-08-04T00:15:14.823Z,100988.88
2022-08-04T00:17:47.827Z,100985.31
2022-08-04T00:20:19.659Z,100988.78
2022-08-04T00:22:50.001Z,100988.94
2022-08-04T00:25:17.893Z,100989.50
2022-08-04T00:27:46.723Z,100995.44
2022-08-04T00:30:14.579Z,101001.72
2022-08-04T00:32:43.136Z,100996.56
2022-08-04T00:35:14.152Z,100990.66
2022-08-04T00:37:45.158Z,100987.09
2022-08-04T00:40:24.858Z,100995.34
2022-08-04T00:43:00.590Z,100986.88
2022-08-04T00:46:20.358Z,100987.88
2022-08-04T00:49:11.454Z,100989.63
2022-08-04T00:52:31.513Z,100989.13
2022-08-04T00:54:48.084Z,100996.31
2022-08-04T00:57:43.160Z,101001.13
2022-08-04T01:00:13.300Z,100995.69
2022-08-04T01:02:55.656Z,100992.53
2022-08-04T01:05:37.995Z,100991.72
2022-08-04T01:08:35.775Z,100987.72
2022-08-04T01:11:11.081Z,100985.44
2022-08-04T01:14:01.412Z,100992.75
2022-08-04T01:16:32.601Z,100989.72
2022-08-04T01:19:01.713Z,100975.63
2022-08-04T01:21:57.810Z,100989.78
2022-08-04T01:24:52.882Z,100987.09
2022-08-04T01:27:32.377Z,100983.41
2022-08-04T01:30:05.546Z,100979.25
2022-08-04T01:32:39.961Z,100978.66
2022-08-04T01:35:21.523Z,100973.31
2022-08-04T01:38:01.028Z,100985.88
2022-08-04T01:40:29.814Z,100975.44
2022-08-04T01:43:01.441Z,100970.81
2022-08-04T01:45:31.948Z,100980.88
2022-08-04T01:47:59.710Z,100977.59
2022-08-04T01:50:29.089Z,100971.56
2022-08-04T01:52:57.268Z,100969.22
2022-08-04T01:55:54.421Z,100970.41
2022-08-04T01:58:19.246Z,100978.16
2022-08-04T02:00:56.741Z,100969.69
2022-08-04T02:04:20.715Z,100964.00
2022-08-04T02:06:23.335Z,100963.41
2022-08-04T02:08:58.526Z,100964.47
2022-08-04T02:11:26.414Z,100957.53
2022-08-04T02:13:59.358Z,100956.69
2022-08-04T02:16:37.910Z,100953.31
2022-08-04T02:19:14.883Z,100945.84
2022-08-04T02:21:43.083Z,100954.28
2022-08-04T02:24:19.718Z,100935.59
2022-08-04T02:26:50.854Z,100945.75
2022-08-04T02:29:27.257Z,100939.81
2022-08-04T02:32:04.613Z,100931.06
2022-08-04T02:34:43.768Z,100934.19
2022-08-04T02:37:12.925Z,100932.16
2022-08-04T02:39:49.223Z,100925.34
2022-08-04T02:42:18.074Z,100915.78
2022-08-04T02:44:51.019Z,100922.47
2022-08-04T02:47:22.507Z,100925.91
2022-08-04T02:49:52.855Z,100931.34
2022-08-04T02:52:21.646Z,100924.09
2022-08-04T02:54:54.512Z,100919.44
2022-08-04T02:57:25.693Z,100922.78
2022-08-04T03:00:09.546Z,100938.16
2022-08-04T03:02:56.890Z,100941.28
2022-08-04T03:05:29.057Z,100931.06
2022-08-04T03:08:23.651Z,100929.66
2022-08-04T03:11:17.227Z,100945.72
2022-08-04T03:14:05.140Z,100943.34
2022-08-04T03:16:59.549Z,100944.88
2022-08-04T03:20:12.548Z,100938.66
2022-08-04T03:23:15.542Z,100949.19
2022-08-04T03:26:06.426Z,100938.31
2022-08-04T03:29:36.752Z,100938.19
2022-08-04T03:32:49.895Z,100940.31
2022-08-04T03:35:45.689Z,100933.25
2022-08-04T03:38:56.855Z,100924.09
2022-08-04T03:41:51.718Z,100930.94
2022-08-04T03:44:55.119Z,100935.25
2022-08-04T03:47:42.181Z,100916.34
2022-08-04T03:50:32.934Z,100915.16
2022-08-04T03:53:25.161Z,100925.16
2022-08-04T03:56:25.850Z,100911.31
2022-08-04T03:59:48.024Z,100915.94
2022-08-04T04:02:45.259Z,100915.34
2022-08-04T04:05:58.971Z,100922.47
2022-08-04T04:08:45.231Z,100928.56
2022-08-04T04:11:57.511Z,100938.91
2022-08-04T04:14:49.081Z,100946.88
2022-08-04T04:17:38.664Z,100951.47
2022-08-04T04:20:34.353Z,100954.25
2022-08-04T04:23:15.249Z,100948.69
2022-08-04T04:26:00.723Z,100944.47
2022-08-04T04:28:58.569Z,100951.16
2022-08-04T04:31:44.887Z,100953.22
2022-08-04T04:34:26.374Z,100956.91
2022-08-04T04:37:08.771Z,100967.81
2022-08-04T04:39:53.022Z,100959.59
2022-08-04T04:42:39.359Z,100968.25
2022-08-04T04:45:23.205Z,100969.47
2022-08-04T04:48:08.441Z,100966.34
2022-08-04T04:50:49.619Z,100964.13
2022-08-04T04:53:25.291Z,100968.28
2022-08-04T04:56:04.716Z,100969.25
2022-08-04T04:58:36.266Z,100978.56
2022-08-04T05:01:28.396Z,100973.34
2022-08-04T05:04:18.002Z,100976.34
2022-08-04T05:07:06.106Z,100976.13
2022-08-04T05:09:47.301Z,100980.94
2022-08-04T05:14:32.779Z,100972.91
2022-08-04T05:15:32.848Z,100976.09
2022-08-04T05:18:03.215Z,100973.94
2022-08-04T05:20:39.799Z,100978.88
2022-08-04T05:23:14.433Z,100970.97
2022-08-04T05:25:58.867Z,100975.28
2022-08-04T05:28:34.137Z,100988.63
2022-08-04T05:31:07.348Z,100991.78
2022-08-04T05:33:41.185Z,101013.06
2022-08-04T05:36:27.171Z,101003.69
2022-08-04T05:39:05.579Z,101013.06
2022-08-04T05:41:45.778Z,101007.38
2022-08-04T05:44:17.887Z,101009.09
2022-08-04T05:46:53.567Z,101005.06
2022-08-04T05:49:23.791Z,100996.34
2022-08-04T05:51:52.890Z,101005.00
2022-08-04T05:54:22.954Z,101001.09
2022-08-04T05:56:51.929Z,101011.94
2022-08-04T05:59:21.569Z,101006.38
2022-08-04T06:01:55.787Z,101000.91
2022-08-04T06:04:28.591Z,101004.50
2022-08-04T06:06:56.591Z,101012.00
2022-08-04T06:09:24.520Z,101023.84
2022-08-04T06:12:03.515Z,101036.38
2022-08-04T06:14:36.830Z,101036.34
2022-08-04T06:19:58.544Z,101040.19
2022-08-04T06:20:17.917Z,101043.50
2022-08-04T06:22:49.025Z,101043.38
2022-08-04T06:25:20.861Z,101049.28
2022-08-04T06:27:50.591Z,101045.13
2022-08-04T06:30:19.547Z,101042.88
2022-08-04T06:33:03.603Z,101034.69
2022-08-04T06:35:32.902Z,101035.69
2022-08-04T06:38:02.855Z,101048.31
2022-08-04T06:40:33.784Z,101052.31
2022-08-04T06:43:03.570Z,101051.50
2022-08-04T06:45:34.276Z,101056.44
2022-08-04T06:48:04.611Z,101062.69
2022-08-04T06:51:26.317Z,101071.81
2022-08-04T06:53:21.434Z,101070.94
2022-08-04T06:55:50.389Z,101076.50
2022-08-04T06:58:20.321Z,101073.47
2022-08-04T07:00:49.819Z,101072.59
2022-08-04T07:03:21.577Z,101073.06
2022-08-04T07:05:50.269Z,101079.59
2022-08-04T07:08:18.337Z,101077.69
2022-08-04T07:10:46.879Z,101064.72
2022-08-04T07:13:15.367Z,101074.91
2022-08-04T07:15:46.213Z,101074.97
2022-08-04T07:18:14.092Z,101080.28
2022-08-04T07:23:17.166Z,101070.63
2022-08-04T07:25:58.933Z,101074.69
2022-08-04T07:28:33.213Z,101080.56
2022-08-04T07:31:03.637Z,101073.00
2022-08-04T07:33:31.720Z,101087.59
2022-08-04T07:36:05.790Z,101074.28
2022-08-04T07:38:50.721Z,101083.72
2022-08-04T07:41:38.343Z,101087.56
2022-08-04T07:44:07.510Z,101091.19
2022-08-04T07:46:35.985Z,101097.03
2022-08-04T07:49:04.367Z,101097.94
2022-08-04T07:51:35.379Z,101101.88
2022-08-04T07:54:05.413Z,101096.69
2022-08-04T07:56:34.424Z,101101.69
2022-08-04T07:59:03.430Z,101096.31
2022-08-04T08:01:32.237Z,101109.78
2022-08-04T08:04:01.546Z,101103.47
2022-08-04T08:06:34.893Z,101110.88
2022-08-04T08:09:13.138Z,101119.63
2022-08-04T08:12:37.144Z,101120.91
2022-08-04T08:14:30.269Z,101127.78
2022-08-04T08:16:59.643Z,101125.19
2022-08-04T08:19:27.463Z,101118.31
2022-08-04T08:21:59.325Z,101119.34
2022-08-04T08:24:30.218Z,101118.34
2022-08-04T08:26:58.460Z,101115.47
2022-08-04T08:29:27.510Z,101114.00
2022-08-04T08:32:01.518Z,101122.75
2022-08-04T08:34:33.592Z,101112.81
2022-08-04T08:37:05.833Z,101118.13
2022-08-04T08:39:44.120Z,101116.72
2022-08-04T08:43:03.683Z,101121.09
2022-08-04T08:46:04.978Z,101109.63
2022-08-04T08:48:54.882Z,101110.94
2022-08-04T08:51:36.203Z,101103.41
2022-08-04T08:54:29.878Z,101106.16
2022-08-04T08:57:14.263Z,101104.44
2022-08-04T08:59:54.513Z,101099.56
2022-08-04T09:02:49.568Z,101104.50
2022-08-04T09:05:49.850Z,101111.53
2022-08-04T09:08:30.944Z,101101.22
2022-08-04T09:11:07.642Z,101106.22
2022-08-04T09:13:46.720Z,101108.16
2022-08-04T09:16:20.410Z,101110.03
2022-08-04T09:18:56.074Z,101106.28
2022-08-04T09:21:32.872Z,101109.00
2022-08-04T09:24:36.849Z,101103.78
2022-08-04T09:27:01.114Z,101101.06
2022-08-04T09:29:38.387Z,101099.88
2022-08-04T09:32:13.117Z,101101.19
2022-08-04T09:35:03.669Z,101095.84
2022-08-04T09:37:46.037Z,101091.66
2022-08-04T09:40:31.309Z,101092.22
2022-08-04T09:43:09.318Z,101093.03
2022-08-04T09:45:49.761Z,101093.81
2022-08-04T09:48:29.410Z,101108.69
2022-08-04T09:51:00.502Z,101111.28
2022-08-04T09:53:45.162Z,101113.81
2022-08-04T09:56:24.406Z,101108.47
2022-08-04T09:59:02.590Z,101098.50
2022-08-04T10:01:33.101Z,101081.94
2022-08-04T10:04:02.907Z,101090.13
2022-08-04T10:07:16.993Z,101091.38
2022-08-04T10:09:53.478Z,101097.03
2022-08-04T10:12:32.519Z,101096.19
2022-08-04T10:15:11.086Z,101102.88
2022-08-04T10:18:03.703Z,101097.78
2022-08-04T10:21:04.675Z,101101.75
2022-08-04T10:23:55.187Z,101098.78
2022-08-04T10:26:34.394Z,101100.03
2022-08-04T10:29:07.858Z,101090.25
2022-08-04T10:31:40.865Z,101086.34
2022-08-04T10:34:20.047Z,101082.53
2022-08-04T10:36:57.643Z,101088.41
2022-08-04T10:39:42.019Z,101079.47
2022-08-04T10:42:18.081Z,101085.97
2022-08-04T10:44:57.809Z,101078.50
2022-08-04T10:47:33.158Z,101083.59
2022-08-04T10:50:03.810Z,101089.72
2022-08-04T10:52:35.625Z,101093.16
2022-08-04T10:55:09.417Z,101082.66
2022-08-04T10:57:44.058Z,101074.22
2022-08-04T11:00:16.435Z,101077.34
2022-08-04T11:02:47.928Z,101085.13
2022-08-04T11:05:28.287Z,101084.44
2022-08-04T11:08:05.619Z,101083.22
2022-08-04T11:10:47.792Z,101077.34
2022-08-04T11:13:29.307Z,101069.47
2022-08-04T11:15:59.978Z,101084.66
2022-08-04T11:18:36.743Z,101078.66
2022-08-04T11:21:17.080Z,101077.63
2022-08-04T11:23:54.316Z,101077.63
2022-08-04T11:26:30.619Z,101084.63
2022-08-04T11:29:06.746Z,101084.50
2022-08-04T11:31:40.614Z,101092.66
2022-08-04T11:34:19.106Z,101087.19
2022-08-04T11:36:53.322Z,101087.22
2022-08-04T11:39:29.606Z,101097.13
2022-08-04T11:42:02.989Z,101100.53
2022-08-04T11:44:36.123Z,101099.84
2022-08-04T11:47:10.237Z,101092.31
2022-08-04T11:49:56.873Z,101102.38
2022-08-04T11:52:29.236Z,101094.03
2022-08-04T11:54:59.294Z,101080.72
2022-08-04T11:57:36.332Z,101076.25
2022-08-04T12:00:09.914Z,101080.31
2022-08-04T12:03:03.022Z,101084.75
2022-08-04T12:05:37.802Z,101088.41
2022-08-04T12:08:24.775Z,101083.25
2022-08-04T12:11:00.349Z,101076.38
2022-08-04T12:13:36.120Z,101071.50
2022-08-04T12:16:16.194Z,101061.50
2022-08-04T12:18:52.621Z,101066.56
2022-08-04T12:21:29.104Z,101063.59
2022-08-04T12:24:03.802Z,101077.16
2022-08-04T12:26:36.186Z,101077.97
2022-08-04T12:29:11.400Z,101084.16
2022-08-04T12:31:46.751Z,101094.75
2022-08-04T12:34:17.629Z,101086.09
2022-08-04T12:36:55.706Z,101085.50
2022-08-04T12:39:28.006Z,101079.69
2022-08-04T12:42:03.307Z,101085.31
2022-08-04T12:44:37.564Z,101090.34
2022-08-04T12:47:27.260Z,101096.75
2022-08-04T12:50:02.139Z,101098.53
2022-08-04T12:53:00.533Z,101094.22
2022-08-04T12:55:26.266Z,101094.59
2022-08-04T12:57:55.725Z,101092.63
2022-08-04T13:00:31.170Z,101099.16
2022-08-04T13:03:09.719Z,101089.78
2022-08-04T13:05:39.977Z,101091.22
2022-08-04T13:08:09.282Z,101093.75
2022-08-04T13:10:41.881Z,101098.91
2022-08-04T13:13:16.963Z,101087.69
2022-08-04T13:15:47.694Z,101084.16
2022-08-04T13:18:30.141Z,101081.81
2022-08-04T13:21:20.786Z,101081.13
2022-08-04T13:24:19.486Z,101073.56
2022-08-04T13:26:54.860Z,101079.19
2022-08-04T13:29:57.771Z,101071.22
2022-08-04T13:32:17.663Z,101075.09
2022-08-04T13:34:48.917Z,101071.28
2022-08-04T13:37:22.378Z,101068.03
2022-08-04T13:39:55.256Z,101073.75
2022-08-04T13:42:26.727Z,101065.69
2022-08-04T13:44:58.176Z,101065.69
2022-08-04T13:47:30.140Z,101064.75
2022-08-04T13:50:19.663Z,101069.06
2022-08-04T13:52:48.583Z,101073.00
2022-08-04T13:55:21.555Z,101073.13
2022-08-04T13:57:55.810Z,101067.69
2022-08-04T14:00:29.341Z,101070.75
2022-08-04T14:03:19.110Z,101073.13
2022-08-04T14:06:26.241Z,101068.88
2022-08-04T14:08:56.237Z,101067.66
2022-08-04T14:12:08.880Z,101061.53
2022-08-04T14:14:24.430Z,101073.16
2022-08-04T14:17:03.700Z,101073.38
2022-08-04T14:19:49.684Z,101076.75
2022-08-04T14:22:33.071Z,101065.13
2022-08-04T14:25:04.123Z,101076.88
2022-08-04T14:27:42.810Z,101063.56
2022-08-04T14:30:24.033Z,101069.00
2022-08-04T14:34:00.533Z,101073.00
2022-08-04T14:35:59.486Z,101070.28
2022-08-04T14:38:44.626Z,101075.47
2022-08-04T14:41:13.024Z,101077.78
2022-08-04T14:43:45.998Z,101073.91
2022-08-04T14:46:15.731Z,101068.41
2022-08-04T14:49:06.213Z,101071.34
2022-08-04T14:51:41.678Z,101077.84
2022-08-04T14:54:17.307Z,101071.81
2022-08-04T14:56:54.142Z,101069.06
2022-08-04T14:59:22.634Z,101071.97
2022-08-04T15:02:01.103Z,101095.31
2022-08-04T15:04:31.307Z,101074.59
2022-08-04T15:06:59.858Z,101079.72
2022-08-04T15:09:27.633Z,101083.13
2022-08-04T15:11:55.603Z,101088.09
2022-08-04T15:14:37.028Z,101086.19
2022-08-04T15:17:12.331Z,101087.66
2022-08-04T15:19:57.617Z,101082.28
2022-08-04T15:22:25.439Z,101086.88
2022-08-04T15:24:54.996Z,101083.47
2022-08-04T15:27:27.537Z,101090.63
2022-08-04T15:30:01.997Z,101090.88
2022-08-04T15:32:33.921Z,101093.31
2022-08-04T15:35:07.228Z,101097.66
2022-08-04T15:37:43.786Z,101098.53
2022-08-04T15:40:17.245Z,101102.94
2022-08-04T15:43:19.413Z,101109.06
2022-08-04T15:46:36.981Z,101102.63
2022-08-04T15:48:41.394Z,101102.44
2022-08-04T15:51:14.771Z,101108.78
2022-08-04T15:54:24.491Z,101097.50
2022-08-04T15:57:01.303Z,101100.34
2022-08-04T15:59:59.811Z,101105.38
2022-08-04T16:02:48.884Z,101104.13
2022-08-04T16:05:36.773Z,101107.63
2022-08-04T16:08:25.508Z,101103.22
2022-08-04T16:10:53.984Z,101100.03
2022-08-04T16:13:23.885Z,101100.75
2022-08-04T16:15:53.968Z,101103.50
2022-08-04T16:18:40.914Z,101099.91
2022-08-04T16:21:23.486Z,101094.88
2022-08-04T16:24:19.356Z,101100.69
2022-08-04T16:26:54.693Z,101100.09
2022-08-04T16:29:31.913Z,101109.00
2022-08-04T16:32:21.358Z,101108.44
2022-08-04T16:35:00.850Z,101104.94
2022-08-04T16:37:35.520Z,101104.19
2022-08-04T16:40:39.520Z,101108.94
2022-08-04T16:43:09.721Z,101101.63
2022-08-04T16:45:51.506Z,101101.13
2022-08-04T16:48:20.773Z,101108.66
2022-08-04T16:50:50.996Z,101117.03
2022-08-04T16:53:52.241Z,101109.78
2022-08-04T16:56:11.574Z,101109.19
2022-08-04T16:58:53.751Z,101110.50
2022-08-04T17:01:32.565Z,101110.38
2022-08-04T17:04:06.009Z,101104.50
2022-08-04T17:06:36.183Z,101107.63
2022-08-04T17:09:10.335Z,101108.94
2022-08-04T17:11:38.157Z,101108.38
2022-08-04T17:14:06.592Z,101107.75
2022-08-04T17:16:36.599Z,101108.47
2022-08-04T17:19:06.245Z,101104.25
2022-08-04T17:21:36.541Z,101108.28
2022-08-04T17:24:16.355Z,101102.13
2022-08-04T17:26:54.247Z,101109.59
2022-08-04T17:29:43.078Z,101121.38
2022-08-04T17:32:17.142Z,101107.47
2022-08-04T17:34:48.937Z,101103.44
2022-08-04T17:37:38.776Z,101109.72
2022-08-04T17:40:11.828Z,101118.25
2022-08-04T17:42:41.352Z,101114.94
2022-08-04T17:47:59.568Z,101109.25
2022-08-04T17:50:28.129Z,101110.59
2022-08-04T17:53:11.940Z,101103.88
2022-08-04T17:55:43.203Z,101101.88
2022-08-04T17:58:21.207Z,101107.06
2022-08-04T18:00:51.202Z,101104.34
2022-08-04T18:03:24.603Z,101105.44
2022-08-04T18:08:50.301Z,101102.44
2022-08-04T18:11:25.007Z,101095.72
2022-08-04T18:13:57.663Z,101104.88
2022-08-04T18:16:27.403Z,101108.91
2022-08-04T18:19:12.105Z,101111.91
2022-08-04T18:21:45.609Z,101124.38
2022-08-04T18:24:34.017Z,101138.22
2022-08-04T18:27:16.375Z,101114.34
2022-08-04T18:30:14.961Z,101130.16
2022-08-04T18:32:33.832Z,101134.91
2022-08-04T18:35:05.697Z,101140.44
2022-08-04T18:38:05.459Z,101137.88
2022-08-04T18:40:26.316Z,101143.63
2022-08-04T18:43:00.619Z,101142.63
2022-08-04T18:45:34.626Z,101140.94
2022-08-04T18:48:14.083Z,101137.69
2022-08-04T18:53:34.976Z,101139.19
2022-08-04T18:56:04.053Z,101146.59
2022-08-04T18:58:35.545Z,101147.44
2022-08-04T19:01:13.685Z,101152.31
2022-08-04T19:03:44.225Z,101156.00
2022-08-04T19:06:15.816Z,101159.66
2022-08-04T19:08:45.173Z,101155.72
2022-08-04T19:14:04.854Z,101152.16
2022-08-04T19:16:34.326Z,101151.28
2022-08-04T19:19:05.664Z,101155.47
2022-08-04T19:22:00.608Z,101157.59
2022-08-04T19:24:32.666Z,101150.38
2022-08-04T19:27:07.587Z,101145.44
2022-08-04T19:29:41.362Z,101151.50
2022-08-04T19:32:14.548Z,101148.34
2022-08-04T19:34:46.143Z,101152.84
2022-08-04T19:37:20.346Z,101154.38
2022-08-04T19:40:04.727Z,101174.47
2022-08-04T19:42:32.629Z,101183.38
2022-08-04T19:45:02.223Z,101196.09
2022-08-04T19:48:16.418Z,101185.16
2022-08-04T19:50:17.946Z,101206.84
2022-08-04T19:52:51.400Z,101205.19
2022-08-04T19:55:19.838Z,101221.13
2022-08-04T19:57:50.992Z,101216.44
2022-08-04T20:00:33.364Z,101219.63
2022-08-04T20:03:02.777Z,101232.66
2022-08-04T20:05:52.739Z,101240.25
2022-08-04T20:08:18.723Z,101237.13
2022-08-04T20:10:46.961Z,101228.03
2022-08-04T20:13:20.447Z,101233.97
2022-08-04T20:15:57.921Z,101243.84
2022-08-04T20:18:35.877Z,101238.19
2022-08-04T20:21:19.818Z,101236.81
2022-08-04T20:23:52.391Z,101243.00
2022-08-04T20:26:20.262Z,101250.97
2022-08-04T20:31:37.140Z,101253.75
2022-08-04T20:34:11.162Z,101266.69
2022-08-04T20:36:41.029Z,101263.75
2022-08-04T20:39:17.881Z,101269.03
2022-08-04T20:41:49.314Z,101271.88
2022-08-04T20:44:24.243Z,101270.81
2022-08-04T20:46:53.628Z,101279.06
2022-08-04T20:49:21.341Z,101277.19
2022-08-04T20:52:10.807Z,101276.06
2022-08-04T20:54:41.409Z,101272.63
2022-08-04T20:57:10.241Z,101269.59
2022-08-04T20:59:39.155Z,101263.66
2022-08-04T21:02:16.222Z,101276.59
2022-08-04T21:04:48.774Z,101271.19
2022-08-04T21:07:17.044Z,101267.88
2022-08-04T21:09:50.141Z,101261.59
2022-08-04T21:12:28.414Z,101255.44
2022-08-04T21:14:57.855Z,101261.47
2022-08-04T21:17:57.997Z,101259.63
2022-08-04T21:20:27.341Z,101256.44
2022-08-04T21:22:55.853Z,101258.53
2022-08-04T21:25:29.452Z,101258.38
2022-08-04T21:27:58.796Z,101263.47
2022-08-04T21:30:32.933Z,101268.34
2022-08-04T21:33:20.888Z,101269.22
2022-08-04T21:35:54.262Z,101269.34
2022-08-04T21:38:28.305Z,101267.13
2022-08-04T21:41:01.645Z,101266.28
2022-08-04T21:43:29.987Z,101269.13
2022-08-04T21:46:11.505Z,101273.78
2022-08-04T21:48:42.396Z,101285.09
2022-08-04T21:51:57.258Z,101285.84
2022-08-04T21:54:02.719Z,101281.59
2022-08-04T21:56:30.513Z,101289.28
2022-08-04T21:58:59.857Z,101291.56
2022-08-04T22:01:49.878Z,101290.44
2022-08-04T22:04:17.613Z,101302.78
2022-08-04T22:06:47.684Z,101298.84
2022-08-04T22:09:22.034Z,101303.75
2022-08-04T22:11:51.967Z,101305.47
2022-08-04T22:14:29.342Z,101308.06
2022-08-04T22:17:02.730Z,101310.75
2022-08-04T22:19:40.883Z,101313.63
2022-08-04T22:22:26.255Z,101315.31
2022-08-04T22:24:58.876Z,101304.94
2022-08-04T22:27:47.743Z,101313.31
2022-08-04T22:30:23.406Z,101305.91
2022-08-04T22:32:51.176Z,101298.25
2022-08-04T22:35:35.871Z,101308.84
2022-08-04T22:38:23.949Z,101297.25
2022-08-04T22:40:58.172Z,101308.31
2022-08-04T22:43:32.456Z,101301.00
2022-08-04T22:46:03.869Z,101305.69
2022-08-04T22:48:33.268Z,101301.72
2022-08-04T22:51:02.872Z,101299.69
2022-08-04T22:53:31.476Z,101315.44
2022-08-04T22:56:10.312Z,101313.16
2022-08-04T22:58:44.805Z,101306.25
2022-08-04T23:01:15.192Z,101309.16
2022-08-04T23:03:55.479Z,101312.03
2022-08-04T23:06:28.542Z,101314.84
2022-08-04T23:08:56.757Z,101329.00
2022-08-04T23:11:24.916Z,101328.63
2022-08-04T23:14:03.761Z,101323.59
2022-08-04T23:16:32.249Z,101326.66
2022-08-04T23:19:00.156Z,101324.03
2022-08-04T23:21:41.100Z,101319.81
2022-08-04T23:24:15.252Z,101317.44
2022-08-04T23:26:43.008Z,101322.72
2022-08-04T23:29:10.769Z,101316.22
2022-08-04T23:31:41.592Z,101317.44
2022-08-04T23:34:26.478Z,101317.31
2022-08-04T23:36:59.262Z,101313.47
2022-08-04T23:40:03.899Z,101317.69
2022-08-04T23:42:21.276Z,101317.16
2022-08-04T23:44:49.541Z,101313.34
2022-08-04T23:48:14.525Z,101314.09
2022-08-04T23:50:05.377Z,101319.97
2022-08-04T23:52:34.917Z,101315.94
2022-08-04T23:55:03.319Z,101314.56
2022-08-04T23:58:05.504Z,101320.41
